sensor_id;sensor_type;location;lat;lon;timestamp;P1;durP1;ratioP1;P2;durP2;ratioP2
10232;SDS011;5161;48.174;11.756;2023-01-31T00:00:54;5.80;;;4.30;;
10232;SDS011;5161;48.174;11.756;2023-01-31T00:03:20;5.80;;;4.90;;
10232;SDS011;5161;48.174;11.756;2023-01-31T00:05:45;8.70;;;4.70;;
10232;SDS011;5161;48.174;11.756;2023-01-31T00:08:11;5.67;;;5.07;;
10232;SDS011;5161;48.174;11.756;2023-01-31T00:10:38;6.80;;;4.90;;
10232;SDS011;5161;48.174;11.756;2023-01-31T00:13:03;6.97;;;4.77;;
10232;SDS011;5161;48.174;11.756;2023-01-31T00:15:29;6.63;;;4.67;;
10232;SDS011;5161;48.174;11.756;2023-01-31T00:17:55;8.33;;;5.10;;
10232;SDS011;5161;48.174;11.756;2023-01-31T00:20:20;7.50;;;4.73;;
10232;SDS011;5161;48.174;11.756;2023-01-31T00:22:47;6.87;;;4.83;;
10232;SDS011;5161;48.174;11.756;2023-01-31T00:25:13;6.67;;;4.90;;
10232;SDS011;5161;48.174;11.756;2023-01-31T00:27:38;6.97;;;4.77;;
10232;SDS011;5161;48.174;11.756;2023-01-31T00:30:04;5.60;;;4.93;;
10232;SDS011;5161;48.174;11.756;2023-01-31T00:32:30;7.07;;;4.57;;
10232;SDS011;5161;48.174;11.756;2023-01-31T00:34:56;7.63;;;5.30;;
10232;SDS011;5161;48.174;11.756;2023-01-31T00:37:21;6.10;;;5.13;;
10232;SDS011;5161;48.174;11.756;2023-01-31T00:39:47;7.47;;;5.07;;
10232;SDS011;5161;48.174;11.756;2023-01-31T00:42:12;7.97;;;4.80;;
10232;SDS011;5161;48.174;11.756;2023-01-31T00:44:38;5.83;;;4.57;;
10232;SDS011;5161;48.174;11.756;2023-01-31T00:47:04;6.07;;;5.00;;
10232;SDS011;5161;48.174;11.756;2023-01-31T00:49:29;6.50;;;4.83;;
10232;SDS011;5161;48.174;11.756;2023-01-31T00:51:55;8.73;;;5.03;;
10232;SDS011;5161;48.174;11.756;2023-01-31T00:54:20;7.53;;;5.70;;
10232;SDS011;5161;48.174;11.756;2023-01-31T00:56:46;6.53;;;5.10;;
10232;SDS011;5161;48.174;11.756;2023-01-31T00:59:11;8.43;;;5.70;;
10232;SDS011;5161;48.174;11.756;2023-01-31T01:01:37;8.07;;;6.23;;
10232;SDS011;5161;48.174;11.756;2023-01-31T01:04:03;8.30;;;5.40;;
10232;SDS011;5161;48.174;11.756;2023-01-31T01:06:29;8.57;;;5.37;;
10232;SDS011;5161;48.174;11.756;2023-01-31T01:08:55;7.60;;;5.90;;
10232;SDS011;5161;48.174;11.756;2023-01-31T01:11:27;8.97;;;5.73;;
10232;SDS011;5161;48.174;11.756;2023-01-31T01:13:54;8.50;;;5.77;;
10232;SDS011;5161;48.174;11.756;2023-01-31T01:16:22;8.60;;;5.50;;
10232;SDS011;5161;48.174;11.756;2023-01-31T01:18:49;7.20;;;5.43;;
10232;SDS011;5161;48.174;11.756;2023-01-31T01:21:16;9.00;;;5.60;;
10232;SDS011;5161;48.174;11.756;2023-01-31T01:23:44;7.57;;;5.37;;
10232;SDS011;5161;48.174;11.756;2023-01-31T01:26:21;9.03;;;5.70;;
10232;SDS011;5161;48.174;11.756;2023-01-31T01:28:49;10.70;;;5.17;;
10232;SDS011;5161;48.174;11.756;2023-01-31T01:31:15;7.97;;;5.67;;
10232;SDS011;5161;48.174;11.756;2023-01-31T01:33:42;8.10;;;5.70;;
10232;SDS011;5161;48.174;11.756;2023-01-31T01:36:09;7.63;;;5.73;;
10232;SDS011;5161;48.174;11.756;2023-01-31T01:38:37;7.43;;;5.33;;
10232;SDS011;5161;48.174;11.756;2023-01-31T01:41:04;6.53;;;5.40;;
10232;SDS011;5161;48.174;11.756;2023-01-31T01:43:40;7.07;;;5.57;;
10232;SDS011;5161;48.174;11.756;2023-01-31T01:46:10;9.00;;;5.73;;
10232;SDS011;5161;48.174;11.756;2023-01-31T01:48:46;7.67;;;5.63;;
10232;SDS011;5161;48.174;11.756;2023-01-31T01:51:14;7.77;;;5.93;;
10232;SDS011;5161;48.174;11.756;2023-01-31T01:53:43;8.50;;;5.60;;
10232;SDS011;5161;48.174;11.756;2023-01-31T01:56:15;6.37;;;5.47;;
10232;SDS011;5161;48.174;11.756;2023-01-31T01:58:46;12.37;;;6.03;;
10232;SDS011;5161;48.174;11.756;2023-01-31T02:01:18;8.97;;;6.20;;
10232;SDS011;5161;48.174;11.756;2023-01-31T02:03:44;6.23;;;5.43;;
10232;SDS011;5161;48.174;11.756;2023-01-31T02:06:13;8.17;;;5.80;;
10232;SDS011;5161;48.174;11.756;2023-01-31T02:08:39;7.60;;;5.83;;
10232;SDS011;5161;48.174;11.756;2023-01-31T02:11:13;10.37;;;6.10;;
10232;SDS011;5161;48.174;11.756;2023-01-31T02:13:47;8.57;;;6.17;;
10232;SDS011;5161;48.174;11.756;2023-01-31T02:16:16;9.27;;;6.27;;
10232;SDS011;5161;48.174;11.756;2023-01-31T02:18:42;8.23;;;6.37;;
10232;SDS011;5161;48.174;11.756;2023-01-31T02:23:58;7.67;;;5.90;;
10232;SDS011;5161;48.174;11.756;2023-01-31T02:37:56;8.23;;;6.30;;
10232;SDS011;5161;48.174;11.756;2023-01-31T02:51:06;8.20;;;6.00;;
10232;SDS011;5161;48.174;11.756;2023-01-31T02:53:36;8.60;;;5.63;;
10232;SDS011;5161;48.174;11.756;2023-01-31T02:56:29;8.80;;;5.47;;
10232;SDS011;5161;48.174;11.756;2023-01-31T02:59:13;8.93;;;5.83;;
10232;SDS011;5161;48.174;11.756;2023-01-31T03:01:47;9.13;;;5.83;;
10232;SDS011;5161;48.174;11.756;2023-01-31T03:04:20;8.30;;;5.67;;
10232;SDS011;5161;48.174;11.756;2023-01-31T03:09:28;9.17;;;5.93;;
10232;SDS011;5161;48.174;11.756;2023-01-31T03:12:26;9.03;;;5.53;;
10232;SDS011;5161;48.174;11.756;2023-01-31T03:20:49;8.43;;;5.73;;
10232;SDS011;5161;48.174;11.756;2023-01-31T03:23:23;10.57;;;5.97;;
10232;SDS011;5161;48.174;11.756;2023-01-31T03:25:53;7.47;;;5.47;;
10232;SDS011;5161;48.174;11.756;2023-01-31T03:28:24;7.40;;;5.10;;
10232;SDS011;5161;48.174;11.756;2023-01-31T03:33:53;10.37;;;6.37;;
10232;SDS011;5161;48.174;11.756;2023-01-31T03:36:27;8.67;;;5.40;;
10232;SDS011;5161;48.174;11.756;2023-01-31T03:41:41;8.83;;;6.27;;
10232;SDS011;5161;48.174;11.756;2023-01-31T03:44:48;8.43;;;6.03;;
10232;SDS011;5161;48.174;11.756;2023-01-31T03:47:37;12.63;;;7.40;;
10232;SDS011;5161;48.174;11.756;2023-01-31T03:50:10;13.83;;;8.17;;
10232;SDS011;5161;48.174;11.756;2023-01-31T03:52:43;12.90;;;7.73;;
10232;SDS011;5161;48.174;11.756;2023-01-31T03:55:18;10.53;;;6.90;;
10232;SDS011;5161;48.174;11.756;2023-01-31T03:57:48;11.77;;;7.37;;
10232;SDS011;5161;48.174;11.756;2023-01-31T04:00:17;6.97;;;6.23;;
10232;SDS011;5161;48.174;11.756;2023-01-31T04:02:45;6.70;;;5.80;;
10232;SDS011;5161;48.174;11.756;2023-01-31T04:05:17;9.83;;;6.33;;
10232;SDS011;5161;48.174;11.756;2023-01-31T04:07:45;7.53;;;6.00;;
10232;SDS011;5161;48.174;11.756;2023-01-31T04:10:14;7.20;;;5.50;;
10232;SDS011;5161;48.174;11.756;2023-01-31T04:12:42;9.20;;;6.00;;
10232;SDS011;5161;48.174;11.756;2023-01-31T04:15:08;9.37;;;6.10;;
10232;SDS011;5161;48.174;11.756;2023-01-31T04:17:35;8.87;;;5.97;;
10232;SDS011;5161;48.174;11.756;2023-01-31T04:20:00;10.00;;;6.23;;
10232;SDS011;5161;48.174;11.756;2023-01-31T04:22:26;8.17;;;6.07;;
10232;SDS011;5161;48.174;11.756;2023-01-31T04:24:52;8.13;;;5.60;;
10232;SDS011;5161;48.174;11.756;2023-01-31T04:27:18;10.30;;;6.23;;
10232;SDS011;5161;48.174;11.756;2023-01-31T04:29:44;9.23;;;5.70;;
10232;SDS011;5161;48.174;11.756;2023-01-31T04:32:09;7.13;;;5.57;;
10232;SDS011;5161;48.174;11.756;2023-01-31T04:34:35;9.50;;;6.07;;
10232;SDS011;5161;48.174;11.756;2023-01-31T04:37:00;9.03;;;6.80;;
10232;SDS011;5161;48.174;11.756;2023-01-31T04:39:26;9.60;;;6.80;;
10232;SDS011;5161;48.174;11.756;2023-01-31T04:41:51;9.70;;;6.00;;
10232;SDS011;5161;48.174;11.756;2023-01-31T04:44:17;7.67;;;5.90;;
10232;SDS011;5161;48.174;11.756;2023-01-31T04:46:43;9.63;;;5.77;;
10232;SDS011;5161;48.174;11.756;2023-01-31T04:49:10;7.60;;;5.73;;
10232;SDS011;5161;48.174;11.756;2023-01-31T04:51:36;9.20;;;6.20;;
10232;SDS011;5161;48.174;11.756;2023-01-31T04:54:02;8.93;;;6.17;;
10232;SDS011;5161;48.174;11.756;2023-01-31T04:56:27;9.13;;;6.00;;
10232;SDS011;5161;48.174;11.756;2023-01-31T04:58:53;9.13;;;6.50;;
10232;SDS011;5161;48.174;11.756;2023-01-31T05:01:19;8.83;;;5.63;;
10232;SDS011;5161;48.174;11.756;2023-01-31T05:03:44;13.67;;;6.33;;
10232;SDS011;5161;48.174;11.756;2023-01-31T05:06:10;10.97;;;6.03;;
10232;SDS011;5161;48.174;11.756;2023-01-31T05:08:35;10.43;;;5.90;;
10232;SDS011;5161;48.174;11.756;2023-01-31T05:11:01;8.63;;;5.93;;
10232;SDS011;5161;48.174;11.756;2023-01-31T05:13:30;10.73;;;5.90;;
10232;SDS011;5161;48.174;11.756;2023-01-31T05:15:56;8.53;;;6.10;;
10232;SDS011;5161;48.174;11.756;2023-01-31T05:18:26;10.70;;;5.77;;
10232;SDS011;5161;48.174;11.756;2023-01-31T05:20:52;9.63;;;6.07;;
10232;SDS011;5161;48.174;11.756;2023-01-31T05:23:17;9.53;;;6.10;;
10232;SDS011;5161;48.174;11.756;2023-01-31T05:25:43;8.90;;;5.87;;
10232;SDS011;5161;48.174;11.756;2023-01-31T05:28:12;9.63;;;6.07;;
10232;SDS011;5161;48.174;11.756;2023-01-31T05:30:38;8.63;;;6.07;;
10232;SDS011;5161;48.174;11.756;2023-01-31T05:33:03;8.60;;;5.87;;
10232;SDS011;5161;48.174;11.756;2023-01-31T05:35:29;10.87;;;6.17;;
10232;SDS011;5161;48.174;11.756;2023-01-31T05:37:55;9.10;;;5.50;;
10232;SDS011;5161;48.174;11.756;2023-01-31T05:40:21;10.47;;;6.20;;
10232;SDS011;5161;48.174;11.756;2023-01-31T05:42:56;8.17;;;5.90;;
10232;SDS011;5161;48.174;11.756;2023-01-31T05:45:25;10.03;;;5.60;;
10232;SDS011;5161;48.174;11.756;2023-01-31T05:47:50;9.77;;;5.77;;
10232;SDS011;5161;48.174;11.756;2023-01-31T05:50:17;11.07;;;6.07;;
10232;SDS011;5161;48.174;11.756;2023-01-31T05:52:43;9.73;;;5.80;;
10232;SDS011;5161;48.174;11.756;2023-01-31T05:58:07;8.40;;;5.20;;
10232;SDS011;5161;48.174;11.756;2023-01-31T06:00:32;8.43;;;5.93;;
10232;SDS011;5161;48.174;11.756;2023-01-31T06:02:58;10.63;;;5.53;;
10232;SDS011;5161;48.174;11.756;2023-01-31T06:05:24;10.50;;;5.40;;
10232;SDS011;5161;48.174;11.756;2023-01-31T06:07:50;9.70;;;5.67;;
10232;SDS011;5161;48.174;11.756;2023-01-31T06:10:15;9.60;;;5.27;;
10232;SDS011;5161;48.174;11.756;2023-01-31T06:12:41;7.77;;;5.80;;
10232;SDS011;5161;48.174;11.756;2023-01-31T06:15:07;8.50;;;5.50;;
10232;SDS011;5161;48.174;11.756;2023-01-31T06:17:39;9.37;;;5.40;;
10232;SDS011;5161;48.174;11.756;2023-01-31T06:20:04;9.57;;;5.73;;
10232;SDS011;5161;48.174;11.756;2023-01-31T06:22:30;8.80;;;5.70;;
10232;SDS011;5161;48.174;11.756;2023-01-31T06:24:55;9.27;;;5.60;;
10232;SDS011;5161;48.174;11.756;2023-01-31T06:27:21;9.80;;;5.40;;
10232;SDS011;5161;48.174;11.756;2023-01-31T06:29:47;10.77;;;5.60;;
10232;SDS011;5161;48.174;11.756;2023-01-31T06:32:12;6.50;;;4.83;;
10232;SDS011;5161;48.174;11.756;2023-01-31T06:34:38;9.37;;;5.40;;
10232;SDS011;5161;48.174;11.756;2023-01-31T06:37:03;12.43;;;5.50;;
10232;SDS011;5161;48.174;11.756;2023-01-31T06:39:32;9.50;;;5.20;;
10232;SDS011;5161;48.174;11.756;2023-01-31T06:41:57;8.57;;;5.07;;
10232;SDS011;5161;48.174;11.756;2023-01-31T06:44:23;13.13;;;5.83;;
10232;SDS011;5161;48.174;11.756;2023-01-31T06:46:48;10.60;;;5.57;;
10232;SDS011;5161;48.174;11.756;2023-01-31T06:49:14;9.77;;;5.53;;
10232;SDS011;5161;48.174;11.756;2023-01-31T06:51:41;9.47;;;5.30;;
10232;SDS011;5161;48.174;11.756;2023-01-31T06:54:06;11.17;;;5.20;;
10232;SDS011;5161;48.174;11.756;2023-01-31T06:56:32;11.07;;;5.20;;
10232;SDS011;5161;48.174;11.756;2023-01-31T06:58:57;8.73;;;4.77;;
10232;SDS011;5161;48.174;11.756;2023-01-31T07:01:23;11.07;;;5.27;;
10232;SDS011;5161;48.174;11.756;2023-01-31T07:03:50;10.83;;;5.00;;
10232;SDS011;5161;48.174;11.756;2023-01-31T07:06:15;11.00;;;5.07;;
10232;SDS011;5161;48.174;11.756;2023-01-31T07:08:44;9.97;;;5.90;;
10232;SDS011;5161;48.174;11.756;2023-01-31T07:11:10;9.03;;;5.33;;
10232;SDS011;5161;48.174;11.756;2023-01-31T07:13:35;11.70;;;5.20;;
10232;SDS011;5161;48.174;11.756;2023-01-31T07:16:01;9.37;;;5.23;;
10232;SDS011;5161;48.174;11.756;2023-01-31T07:18:27;7.67;;;5.00;;
10232;SDS011;5161;48.174;11.756;2023-01-31T07:20:53;8.37;;;5.33;;
10232;SDS011;5161;48.174;11.756;2023-01-31T07:23:18;10.43;;;5.33;;
10232;SDS011;5161;48.174;11.756;2023-01-31T07:25:44;10.47;;;5.37;;
10232;SDS011;5161;48.174;11.756;2023-01-31T07:28:10;7.60;;;5.20;;
10232;SDS011;5161;48.174;11.756;2023-01-31T07:30:36;10.77;;;5.33;;
10232;SDS011;5161;48.174;11.756;2023-01-31T07:33:02;7.37;;;5.17;;
10232;SDS011;5161;48.174;11.756;2023-01-31T07:35:27;11.40;;;5.17;;
10232;SDS011;5161;48.174;11.756;2023-01-31T07:37:53;8.07;;;4.87;;
10232;SDS011;5161;48.174;11.756;2023-01-31T07:40:19;9.53;;;5.73;;
10232;SDS011;5161;48.174;11.756;2023-01-31T07:42:45;6.67;;;4.93;;
10232;SDS011;5161;48.174;11.756;2023-01-31T07:45:12;8.77;;;5.30;;
10232;SDS011;5161;48.174;11.756;2023-01-31T07:47:39;10.63;;;5.50;;
10232;SDS011;5161;48.174;11.756;2023-01-31T07:50:05;10.93;;;5.57;;
10232;SDS011;5161;48.174;11.756;2023-01-31T07:52:31;9.67;;;5.43;;
10232;SDS011;5161;48.174;11.756;2023-01-31T07:54:57;9.17;;;5.13;;
10232;SDS011;5161;48.174;11.756;2023-01-31T07:57:22;8.60;;;5.60;;
10232;SDS011;5161;48.174;11.756;2023-01-31T07:59:48;6.30;;;5.07;;
10232;SDS011;5161;48.174;11.756;2023-01-31T08:02:15;10.53;;;7.30;;
10232;SDS011;5161;48.174;11.756;2023-01-31T08:05:00;13.60;;;7.40;;
10232;SDS011;5161;48.174;11.756;2023-01-31T08:07:26;8.37;;;6.10;;
10232;SDS011;5161;48.174;11.756;2023-01-31T08:09:53;7.63;;;5.43;;
10232;SDS011;5161;48.174;11.756;2023-01-31T08:12:19;9.13;;;5.90;;
10232;SDS011;5161;48.174;11.756;2023-01-31T08:14:45;9.70;;;5.70;;
10232;SDS011;5161;48.174;11.756;2023-01-31T08:17:10;8.33;;;5.40;;
10232;SDS011;5161;48.174;11.756;2023-01-31T08:19:36;8.07;;;5.40;;
10232;SDS011;5161;48.174;11.756;2023-01-31T08:22:02;10.80;;;5.27;;
10232;SDS011;5161;48.174;11.756;2023-01-31T08:24:29;12.23;;;5.63;;
10232;SDS011;5161;48.174;11.756;2023-01-31T08:26:56;10.73;;;5.67;;
10232;SDS011;5161;48.174;11.756;2023-01-31T08:29:22;11.70;;;7.43;;
10232;SDS011;5161;48.174;11.756;2023-01-31T08:31:48;10.47;;;7.63;;
10232;SDS011;5161;48.174;11.756;2023-01-31T08:34:14;12.47;;;6.27;;
10232;SDS011;5161;48.174;11.756;2023-01-31T08:36:40;10.47;;;5.50;;
10232;SDS011;5161;48.174;11.756;2023-01-31T08:39:07;16.80;;;11.97;;
10232;SDS011;5161;48.174;11.756;2023-01-31T08:41:33;10.30;;;6.50;;
10232;SDS011;5161;48.174;11.756;2023-01-31T08:44:00;11.73;;;5.90;;
10232;SDS011;5161;48.174;11.756;2023-01-31T08:46:29;10.13;;;5.23;;
10232;SDS011;5161;48.174;11.756;2023-01-31T08:48:58;13.10;;;6.40;;
10232;SDS011;5161;48.174;11.756;2023-01-31T08:51:25;12.17;;;6.40;;
10232;SDS011;5161;48.174;11.756;2023-01-31T08:53:51;10.50;;;6.87;;
10232;SDS011;5161;48.174;11.756;2023-01-31T08:56:17;9.57;;;5.40;;
10232;SDS011;5161;48.174;11.756;2023-01-31T08:58:45;11.20;;;6.00;;
10232;SDS011;5161;48.174;11.756;2023-01-31T09:01:12;11.20;;;6.10;;
10232;SDS011;5161;48.174;11.756;2023-01-31T09:03:39;10.77;;;5.20;;
10232;SDS011;5161;48.174;11.756;2023-01-31T09:06:06;14.43;;;5.43;;
10232;SDS011;5161;48.174;11.756;2023-01-31T09:08:34;13.10;;;5.27;;
10232;SDS011;5161;48.174;11.756;2023-01-31T09:11:00;12.00;;;5.33;;
10232;SDS011;5161;48.174;11.756;2023-01-31T09:13:26;7.10;;;4.47;;
10232;SDS011;5161;48.174;11.756;2023-01-31T09:15:59;9.63;;;4.70;;
10232;SDS011;5161;48.174;11.756;2023-01-31T09:18:36;9.43;;;4.90;;
10232;SDS011;5161;48.174;11.756;2023-01-31T09:21:06;15.23;;;7.40;;
10232;SDS011;5161;48.174;11.756;2023-01-31T09:23:37;23.20;;;12.10;;
10232;SDS011;5161;48.174;11.756;2023-01-31T09:26:03;11.20;;;4.80;;
10232;SDS011;5161;48.174;11.756;2023-01-31T09:28:29;7.53;;;4.10;;
10232;SDS011;5161;48.174;11.756;2023-01-31T09:31:00;9.90;;;4.60;;
10232;SDS011;5161;48.174;11.756;2023-01-31T09:33:27;9.13;;;4.50;;
10232;SDS011;5161;48.174;11.756;2023-01-31T09:36:06;14.63;;;4.83;;
10232;SDS011;5161;48.174;11.756;2023-01-31T09:38:33;6.83;;;3.93;;
10232;SDS011;5161;48.174;11.756;2023-01-31T09:41:03;9.43;;;4.50;;
10232;SDS011;5161;48.174;11.756;2023-01-31T09:43:43;7.57;;;4.40;;
10232;SDS011;5161;48.174;11.756;2023-01-31T09:46:14;13.60;;;4.50;;
10232;SDS011;5161;48.174;11.756;2023-01-31T09:48:43;11.00;;;4.67;;
10232;SDS011;5161;48.174;11.756;2023-01-31T09:51:12;7.90;;;4.57;;
10232;SDS011;5161;48.174;11.756;2023-01-31T09:53:40;10.23;;;4.40;;
10232;SDS011;5161;48.174;11.756;2023-01-31T09:56:13;7.87;;;4.30;;
10232;SDS011;5161;48.174;11.756;2023-01-31T10:07:05;9.90;;;4.87;;
10232;SDS011;5161;48.174;11.756;2023-01-31T10:09:48;9.53;;;4.60;;
10232;SDS011;5161;48.174;11.756;2023-01-31T10:12:20;10.60;;;4.67;;
10232;SDS011;5161;48.174;11.756;2023-01-31T10:15:01;9.57;;;4.10;;
10232;SDS011;5161;48.174;11.756;2023-01-31T10:20:19;9.17;;;3.90;;
10232;SDS011;5161;48.174;11.756;2023-01-31T10:22:57;11.07;;;4.40;;
10232;SDS011;5161;48.174;11.756;2023-01-31T10:25:32;7.23;;;4.50;;
10232;SDS011;5161;48.174;11.756;2023-01-31T10:36:09;6.97;;;3.50;;
10232;SDS011;5161;48.174;11.756;2023-01-31T10:39:01;9.07;;;3.17;;
10232;SDS011;5161;48.174;11.756;2023-01-31T10:42:04;9.43;;;3.37;;
10232;SDS011;5161;48.174;11.756;2023-01-31T10:44:51;8.50;;;3.63;;
10232;SDS011;5161;48.174;11.756;2023-01-31T10:47:33;8.33;;;3.73;;
10232;SDS011;5161;48.174;11.756;2023-01-31T10:50:18;5.03;;;3.60;;
10232;SDS011;5161;48.174;11.756;2023-01-31T10:55:35;7.43;;;3.90;;
10232;SDS011;5161;48.174;11.756;2023-01-31T10:58:07;9.37;;;4.13;;
10232;SDS011;5161;48.174;11.756;2023-01-31T11:00:42;9.17;;;3.43;;
10232;SDS011;5161;48.174;11.756;2023-01-31T11:03:11;5.43;;;3.30;;
10232;SDS011;5161;48.174;11.756;2023-01-31T11:05:48;5.63;;;3.17;;
10232;SDS011;5161;48.174;11.756;2023-01-31T11:08:21;9.93;;;4.83;;
10232;SDS011;5161;48.174;11.756;2023-01-31T11:10:55;8.27;;;4.60;;
10232;SDS011;5161;48.174;11.756;2023-01-31T11:13:21;10.73;;;4.23;;
10232;SDS011;5161;48.174;11.756;2023-01-31T11:15:47;8.63;;;4.63;;
10232;SDS011;5161;48.174;11.756;2023-01-31T11:18:27;16.60;;;4.77;;
10232;SDS011;5161;48.174;11.756;2023-01-31T11:21:02;10.13;;;3.93;;
10232;SDS011;5161;48.174;11.756;2023-01-31T11:23:29;6.10;;;4.20;;
10232;SDS011;5161;48.174;11.756;2023-01-31T11:25:56;9.83;;;4.70;;
10232;SDS011;5161;48.174;11.756;2023-01-31T11:28:33;8.47;;;4.30;;
10232;SDS011;5161;48.174;11.756;2023-01-31T11:31:02;7.03;;;4.60;;
10232;SDS011;5161;48.174;11.756;2023-01-31T11:36:18;6.50;;;4.37;;
10232;SDS011;5161;48.174;11.756;2023-01-31T11:38:47;6.27;;;4.43;;
10232;SDS011;5161;48.174;11.756;2023-01-31T11:41:24;7.07;;;4.30;;
10232;SDS011;5161;48.174;11.756;2023-01-31T11:44:17;8.30;;;5.17;;
10232;SDS011;5161;48.174;11.756;2023-01-31T11:46:45;11.80;;;5.97;;
10232;SDS011;5161;48.174;11.756;2023-01-31T11:49:17;10.77;;;6.03;;
10232;SDS011;5161;48.174;11.756;2023-01-31T11:52:02;11.20;;;5.10;;
10232;SDS011;5161;48.174;11.756;2023-01-31T11:54:38;8.53;;;4.67;;
10232;SDS011;5161;48.174;11.756;2023-01-31T11:57:21;11.30;;;5.87;;
10232;SDS011;5161;48.174;11.756;2023-01-31T11:59:48;9.73;;;5.03;;
10232;SDS011;5161;48.174;11.756;2023-01-31T12:02:24;8.27;;;5.20;;
10232;SDS011;5161;48.174;11.756;2023-01-31T12:04:56;8.83;;;6.10;;
10232;SDS011;5161;48.174;11.756;2023-01-31T12:07:41;14.30;;;5.77;;
10232;SDS011;5161;48.174;11.756;2023-01-31T12:10:24;7.50;;;5.80;;
10232;SDS011;5161;48.174;11.756;2023-01-31T12:12:57;9.53;;;5.33;;
10232;SDS011;5161;48.174;11.756;2023-01-31T12:15:23;8.50;;;5.17;;
10232;SDS011;5161;48.174;11.756;2023-01-31T12:17:51;8.23;;;5.40;;
10232;SDS011;5161;48.174;11.756;2023-01-31T12:23:25;10.03;;;5.23;;
10232;SDS011;5161;48.174;11.756;2023-01-31T12:28:54;7.20;;;4.80;;
10232;SDS011;5161;48.174;11.756;2023-01-31T12:31:45;9.83;;;5.07;;
10232;SDS011;5161;48.174;11.756;2023-01-31T12:43:04;6.10;;;5.03;;
10232;SDS011;5161;48.174;11.756;2023-01-31T12:56:18;7.27;;;5.60;;
10232;SDS011;5161;48.174;11.756;2023-01-31T13:07:25;6.07;;;4.93;;
10232;SDS011;5161;48.174;11.756;2023-01-31T13:09:56;9.10;;;5.37;;
10232;SDS011;5161;48.174;11.756;2023-01-31T13:12:26;8.77;;;5.27;;
10232;SDS011;5161;48.174;11.756;2023-01-31T13:17:39;8.03;;;5.33;;
10232;SDS011;5161;48.174;11.756;2023-01-31T13:20:15;8.63;;;5.83;;
10232;SDS011;5161;48.174;11.756;2023-01-31T13:22:51;7.23;;;5.40;;
10232;SDS011;5161;48.174;11.756;2023-01-31T13:25:23;7.97;;;5.63;;
10232;SDS011;5161;48.174;11.756;2023-01-31T13:28:20;5.80;;;5.20;;
10232;SDS011;5161;48.174;11.756;2023-01-31T13:30:59;9.33;;;5.70;;
10232;SDS011;5161;48.174;11.756;2023-01-31T13:33:34;7.60;;;5.53;;
10232;SDS011;5161;48.174;11.756;2023-01-31T13:36:10;7.30;;;5.93;;
10232;SDS011;5161;48.174;11.756;2023-01-31T13:38:47;10.77;;;6.17;;
10232;SDS011;5161;48.174;11.756;2023-01-31T13:41:18;8.73;;;5.67;;
10232;SDS011;5161;48.174;11.756;2023-01-31T13:43:53;8.10;;;5.90;;
10232;SDS011;5161;48.174;11.756;2023-01-31T13:46:22;7.00;;;5.83;;
10232;SDS011;5161;48.174;11.756;2023-01-31T13:49:27;9.87;;;6.27;;
10232;SDS011;5161;48.174;11.756;2023-01-31T13:51:54;8.63;;;6.83;;
10232;SDS011;5161;48.174;11.756;2023-01-31T13:54:27;9.13;;;5.80;;
10232;SDS011;5161;48.174;11.756;2023-01-31T13:57:06;9.17;;;6.60;;
10232;SDS011;5161;48.174;11.756;2023-01-31T13:59:44;12.70;;;6.77;;
10232;SDS011;5161;48.174;11.756;2023-01-31T14:02:20;8.10;;;6.30;;
10232;SDS011;5161;48.174;11.756;2023-01-31T14:04:47;8.50;;;6.40;;
10232;SDS011;5161;48.174;11.756;2023-01-31T14:14:45;9.03;;;7.30;;
10232;SDS011;5161;48.174;11.756;2023-01-31T14:22:22;10.20;;;6.70;;
10232;SDS011;5161;48.174;11.756;2023-01-31T14:37:57;9.67;;;6.20;;
10232;SDS011;5161;48.174;11.756;2023-01-31T14:40:59;8.67;;;6.37;;
10232;SDS011;5161;48.174;11.756;2023-01-31T14:43:30;9.23;;;6.37;;
10232;SDS011;5161;48.174;11.756;2023-01-31T14:51:46;7.93;;;6.70;;
10232;SDS011;5161;48.174;11.756;2023-01-31T14:59:56;7.77;;;6.20;;
10232;SDS011;5161;48.174;11.756;2023-01-31T15:05:02;11.10;;;7.70;;
10232;SDS011;5161;48.174;11.756;2023-01-31T15:07:31;9.77;;;6.60;;
10232;SDS011;5161;48.174;11.756;2023-01-31T15:09:57;8.07;;;6.30;;
10232;SDS011;5161;48.174;11.756;2023-01-31T15:15:21;13.03;;;9.07;;
10232;SDS011;5161;48.174;11.756;2023-01-31T15:17:58;9.23;;;6.80;;
10232;SDS011;5161;48.174;11.756;2023-01-31T15:20:37;10.03;;;7.33;;
10232;SDS011;5161;48.174;11.756;2023-01-31T15:23:10;8.07;;;6.67;;
10232;SDS011;5161;48.174;11.756;2023-01-31T15:25:43;15.23;;;8.63;;
10232;SDS011;5161;48.174;11.756;2023-01-31T15:28:17;19.77;;;8.27;;
10232;SDS011;5161;48.174;11.756;2023-01-31T15:30:46;12.47;;;7.30;;
10232;SDS011;5161;48.174;11.756;2023-01-31T15:33:26;12.63;;;8.40;;
10232;SDS011;5161;48.174;11.756;2023-01-31T15:36:06;12.23;;;8.27;;
10232;SDS011;5161;48.174;11.756;2023-01-31T15:38:55;17.97;;;9.33;;
10232;SDS011;5161;48.174;11.756;2023-01-31T15:44:16;17.53;;;11.20;;
10232;SDS011;5161;48.174;11.756;2023-01-31T15:46:45;32.30;;;23.47;;
10232;SDS011;5161;48.174;11.756;2023-01-31T15:51:45;16.87;;;11.10;;
10232;SDS011;5161;48.174;11.756;2023-01-31T15:54:25;13.53;;;9.67;;
10232;SDS011;5161;48.174;11.756;2023-01-31T15:56:51;15.00;;;9.20;;
10232;SDS011;5161;48.174;11.756;2023-01-31T15:59:17;13.67;;;8.57;;
10232;SDS011;5161;48.174;11.756;2023-01-31T16:01:46;11.37;;;8.67;;
10232;SDS011;5161;48.174;11.756;2023-01-31T16:04:15;13.60;;;8.70;;
10232;SDS011;5161;48.174;11.756;2023-01-31T16:06:40;13.03;;;8.97;;
10232;SDS011;5161;48.174;11.756;2023-01-31T16:09:06;12.13;;;8.17;;
10232;SDS011;5161;48.174;11.756;2023-01-31T16:11:46;9.90;;;7.37;;
10232;SDS011;5161;48.174;11.756;2023-01-31T16:14:14;9.17;;;7.03;;
10232;SDS011;5161;48.174;11.756;2023-01-31T16:16:40;8.40;;;7.23;;
10232;SDS011;5161;48.174;11.756;2023-01-31T16:19:12;9.57;;;7.53;;
10232;SDS011;5161;48.174;11.756;2023-01-31T16:21:46;15.60;;;8.93;;
10232;SDS011;5161;48.174;11.756;2023-01-31T16:24:14;11.80;;;9.23;;
10232;SDS011;5161;48.174;11.756;2023-01-31T16:26:47;12.77;;;9.60;;
10232;SDS011;5161;48.174;11.756;2023-01-31T16:32:15;8.43;;;7.30;;
10232;SDS011;5161;48.174;11.756;2023-01-31T16:34:58;11.00;;;7.73;;
10232;SDS011;5161;48.174;11.756;2023-01-31T16:37:33;9.90;;;7.40;;
10232;SDS011;5161;48.174;11.756;2023-01-31T16:42:43;9.53;;;7.70;;
10232;SDS011;5161;48.174;11.756;2023-01-31T16:45:28;12.67;;;8.07;;
10232;SDS011;5161;48.174;11.756;2023-01-31T16:50:48;10.70;;;7.37;;
10232;SDS011;5161;48.174;11.756;2023-01-31T16:58:49;9.63;;;7.47;;
10232;SDS011;5161;48.174;11.756;2023-01-31T17:01:26;15.13;;;7.70;;
10232;SDS011;5161;48.174;11.756;2023-01-31T17:04:17;10.50;;;8.13;;
10232;SDS011;5161;48.174;11.756;2023-01-31T17:06:44;10.33;;;8.17;;
10232;SDS011;5161;48.174;11.756;2023-01-31T17:09:14;9.33;;;7.80;;
10232;SDS011;5161;48.174;11.756;2023-01-31T17:11:45;9.73;;;8.10;;
10232;SDS011;5161;48.174;11.756;2023-01-31T17:14:11;10.20;;;8.10;;
10232;SDS011;5161;48.174;11.756;2023-01-31T17:16:37;11.23;;;8.23;;
10232;SDS011;5161;48.174;11.756;2023-01-31T17:19:03;10.03;;;8.27;;
10232;SDS011;5161;48.174;11.756;2023-01-31T17:21:29;11.60;;;9.40;;
10232;SDS011;5161;48.174;11.756;2023-01-31T17:24:01;11.67;;;8.83;;
10232;SDS011;5161;48.174;11.756;2023-01-31T17:26:27;8.77;;;7.67;;
10232;SDS011;5161;48.174;11.756;2023-01-31T17:28:54;10.07;;;7.97;;
10232;SDS011;5161;48.174;11.756;2023-01-31T17:31:21;12.00;;;8.13;;
10232;SDS011;5161;48.174;11.756;2023-01-31T17:33:47;10.90;;;8.30;;
10232;SDS011;5161;48.174;11.756;2023-01-31T17:36:17;10.30;;;7.80;;
10232;SDS011;5161;48.174;11.756;2023-01-31T17:38:46;10.43;;;8.20;;
10232;SDS011;5161;48.174;11.756;2023-01-31T17:41:12;9.53;;;7.73;;
10232;SDS011;5161;48.174;11.756;2023-01-31T17:43:40;10.07;;;8.20;;
10232;SDS011;5161;48.174;11.756;2023-01-31T17:46:10;11.23;;;7.90;;